sensor_id;sensor_type;location;lat;lon;timestamp;P1;durP1;ratioP1;P2;durP2;ratioP2
13520;SDS011;6832;51.186;3.236;2023-07-02T00:01:47;34.37;;;11.07;;
13520;SDS011;6832;51.186;3.236;2023-07-02T00:04:15;36.47;;;10.97;;
13520;SDS011;6832;51.186;3.236;2023-07-02T00:06:44;35.77;;;11.70;;
13520;SDS011;6832;51.186;3.236;2023-07-02T00:09:12;65.47;;;14.23;;
13520;SDS011;6832;51.186;3.236;2023-07-02T00:11:41;44.03;;;11.93;;
13520;SDS011;6832;51.186;3.236;2023-07-02T00:14:10;47.73;;;13.00;;
13520;SDS011;6832;51.186;3.236;2023-07-02T00:16:38;43.13;;;11.77;;
13520;SDS011;6832;51.186;3.236;2023-07-02T00:19:09;44.70;;;12.93;;
13520;SDS011;6832;51.186;3.236;2023-07-02T00:21:36;49.07;;;12.73;;
13520;SDS011;6832;51.186;3.236;2023-07-02T00:24:04;36.30;;;11.63;;
13520;SDS011;6832;51.186;3.236;2023-07-02T00:26:31;36.27;;;11.90;;
13520;SDS011;6832;51.186;3.236;2023-07-02T00:28:59;45.20;;;12.83;;
13520;SDS011;6832;51.186;3.236;2023-07-02T00:31:26;53.90;;;13.13;;
13520;SDS011;6832;51.186;3.236;2023-07-02T00:33:53;41.50;;;12.40;;
13520;SDS011;6832;51.186;3.236;2023-07-02T00:36:20;32.43;;;12.00;;
13520;SDS011;6832;51.186;3.236;2023-07-02T00:38:47;41.97;;;12.57;;
13520;SDS011;6832;51.186;3.236;2023-07-02T00:41:15;40.47;;;12.17;;
13520;SDS011;6832;51.186;3.236;2023-07-02T00:43:42;36.13;;;12.13;;
13520;SDS011;6832;51.186;3.236;2023-07-02T00:46:12;45.50;;;12.97;;
13520;SDS011;6832;51.186;3.236;2023-07-02T00:48:43;44.33;;;12.93;;
13520;SDS011;6832;51.186;3.236;2023-07-02T00:51:11;44.57;;;13.03;;
13520;SDS011;6832;51.186;3.236;2023-07-02T00:53:39;41.57;;;12.47;;
13520;SDS011;6832;51.186;3.236;2023-07-02T00:56:07;42.13;;;12.20;;
13520;SDS011;6832;51.186;3.236;2023-07-02T00:58:34;53.40;;;13.23;;
13520;SDS011;6832;51.186;3.236;2023-07-02T01:01:05;44.63;;;12.60;;
13520;SDS011;6832;51.186;3.236;2023-07-02T01:03:36;44.57;;;12.67;;
13520;SDS011;6832;51.186;3.236;2023-07-02T01:06:03;36.27;;;11.80;;
13520;SDS011;6832;51.186;3.236;2023-07-02T01:08:29;46.40;;;13.07;;
13520;SDS011;6832;51.186;3.236;2023-07-02T01:10:57;73.47;;;16.13;;
13520;SDS011;6832;51.186;3.236;2023-07-02T01:13:25;49.77;;;14.00;;
13520;SDS011;6832;51.186;3.236;2023-07-02T01:15:52;51.67;;;13.20;;
13520;SDS011;6832;51.186;3.236;2023-07-02T01:18:19;38.90;;;12.53;;
13520;SDS011;6832;51.186;3.236;2023-07-02T01:20:48;42.63;;;13.13;;
13520;SDS011;6832;51.186;3.236;2023-07-02T01:23:15;38.87;;;12.70;;
13520;SDS011;6832;51.186;3.236;2023-07-02T01:25:42;39.13;;;12.53;;
13520;SDS011;6832;51.186;3.236;2023-07-02T01:28:10;41.50;;;13.10;;
13520;SDS011;6832;51.186;3.236;2023-07-02T01:30:38;43.33;;;13.13;;
13520;SDS011;6832;51.186;3.236;2023-07-02T01:33:05;39.40;;;12.00;;
13520;SDS011;6832;51.186;3.236;2023-07-02T01:35:32;55.40;;;14.87;;
13520;SDS011;6832;51.186;3.236;2023-07-02T01:38:00;34.33;;;11.80;;
13520;SDS011;6832;51.186;3.236;2023-07-02T01:40:27;43.57;;;13.13;;
13520;SDS011;6832;51.186;3.236;2023-07-02T01:42:54;35.47;;;11.63;;
13520;SDS011;6832;51.186;3.236;2023-07-02T01:45:21;48.30;;;13.73;;
13520;SDS011;6832;51.186;3.236;2023-07-02T01:47:48;46.97;;;13.93;;
13520;SDS011;6832;51.186;3.236;2023-07-02T01:50:14;52.40;;;14.17;;
13520;SDS011;6832;51.186;3.236;2023-07-02T01:52:41;43.13;;;12.50;;
13520;SDS011;6832;51.186;3.236;2023-07-02T01:55:10;38.53;;;12.13;;
13520;SDS011;6832;51.186;3.236;2023-07-02T01:57:36;48.83;;;13.63;;
13520;SDS011;6832;51.186;3.236;2023-07-02T02:00:04;34.53;;;11.60;;
13520;SDS011;6832;51.186;3.236;2023-07-02T02:02:32;33.73;;;11.97;;
13520;SDS011;6832;51.186;3.236;2023-07-02T02:04:59;62.97;;;15.40;;
13520;SDS011;6832;51.186;3.236;2023-07-02T02:07:26;41.67;;;13.00;;
13520;SDS011;6832;51.186;3.236;2023-07-02T02:09:53;48.87;;;13.43;;
13520;SDS011;6832;51.186;3.236;2023-07-02T02:12:21;57.07;;;14.23;;
13520;SDS011;6832;51.186;3.236;2023-07-02T02:14:48;36.43;;;12.30;;
13520;SDS011;6832;51.186;3.236;2023-07-02T02:17:15;33.50;;;11.83;;
13520;SDS011;6832;51.186;3.236;2023-07-02T02:19:41;43.17;;;12.47;;
13520;SDS011;6832;51.186;3.236;2023-07-02T02:22:08;39.40;;;11.97;;
13520;SDS011;6832;51.186;3.236;2023-07-02T02:24:35;38.23;;;12.90;;
13520;SDS011;6832;51.186;3.236;2023-07-02T02:27:02;60.30;;;14.60;;
13520;SDS011;6832;51.186;3.236;2023-07-02T02:29:31;44.77;;;12.87;;
13520;SDS011;6832;51.186;3.236;2023-07-02T02:31:58;35.70;;;12.07;;
13520;SDS011;6832;51.186;3.236;2023-07-02T02:34:24;63.87;;;15.33;;
13520;SDS011;6832;51.186;3.236;2023-07-02T02:36:51;43.90;;;13.70;;
13520;SDS011;6832;51.186;3.236;2023-07-02T02:39:20;32.10;;;11.70;;
13520;SDS011;6832;51.186;3.236;2023-07-02T02:41:47;39.50;;;13.03;;
13520;SDS011;6832;51.186;3.236;2023-07-02T02:44:14;43.57;;;13.37;;
13520;SDS011;6832;51.186;3.236;2023-07-02T02:46:42;45.63;;;13.37;;
13520;SDS011;6832;51.186;3.236;2023-07-02T02:49:09;59.00;;;14.53;;
13520;SDS011;6832;51.186;3.236;2023-07-02T02:51:36;42.23;;;12.20;;
13520;SDS011;6832;51.186;3.236;2023-07-02T02:54:02;38.23;;;12.47;;
13520;SDS011;6832;51.186;3.236;2023-07-02T02:56:29;37.90;;;12.97;;
13520;SDS011;6832;51.186;3.236;2023-07-02T02:58:56;33.17;;;11.33;;
13520;SDS011;6832;51.186;3.236;2023-07-02T03:01:23;52.47;;;13.23;;
13520;SDS011;6832;51.186;3.236;2023-07-02T03:03:57;37.47;;;12.77;;
13520;SDS011;6832;51.186;3.236;2023-07-02T03:06:25;36.67;;;12.20;;
13520;SDS011;6832;51.186;3.236;2023-07-02T03:08:51;33.40;;;12.20;;
13520;SDS011;6832;51.186;3.236;2023-07-02T03:11:18;40.57;;;12.43;;
13520;SDS011;6832;51.186;3.236;2023-07-02T03:13:45;36.50;;;12.20;;
13520;SDS011;6832;51.186;3.236;2023-07-02T03:16:12;43.13;;;13.40;;
13520;SDS011;6832;51.186;3.236;2023-07-02T03:18:39;83.43;;;16.63;;
13520;SDS011;6832;51.186;3.236;2023-07-02T03:21:08;46.37;;;12.43;;
13520;SDS011;6832;51.186;3.236;2023-07-02T03:23:36;44.70;;;13.33;;
13520;SDS011;6832;51.186;3.236;2023-07-02T03:26:03;38.17;;;12.23;;
13520;SDS011;6832;51.186;3.236;2023-07-02T03:28:29;34.07;;;12.27;;
13520;SDS011;6832;51.186;3.236;2023-07-02T03:30:56;33.27;;;12.13;;
13520;SDS011;6832;51.186;3.236;2023-07-02T03:33:23;32.27;;;11.47;;
13520;SDS011;6832;51.186;3.236;2023-07-02T03:35:50;50.63;;;13.33;;
13520;SDS011;6832;51.186;3.236;2023-07-02T03:38:18;30.70;;;12.13;;
13520;SDS011;6832;51.186;3.236;2023-07-02T03:40:45;42.73;;;11.97;;
13520;SDS011;6832;51.186;3.236;2023-07-02T03:43:14;54.90;;;14.77;;
13520;SDS011;6832;51.186;3.236;2023-07-02T03:45:41;38.90;;;11.63;;
13520;SDS011;6832;51.186;3.236;2023-07-02T03:48:08;31.67;;;11.63;;
13520;SDS011;6832;51.186;3.236;2023-07-02T03:50:35;47.03;;;12.57;;
13520;SDS011;6832;51.186;3.236;2023-07-02T03:53:01;43.47;;;12.47;;
13520;SDS011;6832;51.186;3.236;2023-07-02T03:55:30;30.23;;;11.50;;
13520;SDS011;6832;51.186;3.236;2023-07-02T03:57:57;37.57;;;12.37;;
13520;SDS011;6832;51.186;3.236;2023-07-02T04:00:24;36.03;;;12.27;;
13520;SDS011;6832;51.186;3.236;2023-07-02T04:02:51;34.87;;;11.67;;
13520;SDS011;6832;51.186;3.236;2023-07-02T04:05:18;31.93;;;11.30;;
13520;SDS011;6832;51.186;3.236;2023-07-02T04:07:45;41.73;;;12.73;;
13520;SDS011;6832;51.186;3.236;2023-07-02T04:10:11;34.53;;;11.93;;
13520;SDS011;6832;51.186;3.236;2023-07-02T04:12:40;27.73;;;11.60;;
13520;SDS011;6832;51.186;3.236;2023-07-02T04:15:07;39.23;;;12.37;;
13520;SDS011;6832;51.186;3.236;2023-07-02T04:17:35;33.53;;;11.00;;
13520;SDS011;6832;51.186;3.236;2023-07-02T04:20:02;31.37;;;10.87;;
13520;SDS011;6832;51.186;3.236;2023-07-02T04:22:29;42.63;;;11.97;;
13520;SDS011;6832;51.186;3.236;2023-07-02T04:24:56;44.07;;;12.27;;
13520;SDS011;6832;51.186;3.236;2023-07-02T04:27:24;31.13;;;11.67;;
13520;SDS011;6832;51.186;3.236;2023-07-02T04:29:52;41.20;;;11.93;;
13520;SDS011;6832;51.186;3.236;2023-07-02T04:32:20;45.33;;;12.83;;
13520;SDS011;6832;51.186;3.236;2023-07-02T04:34:47;31.20;;;11.57;;
13520;SDS011;6832;51.186;3.236;2023-07-02T04:37:14;26.77;;;11.23;;
13520;SDS011;6832;51.186;3.236;2023-07-02T04:39:41;94.87;;;15.80;;
13520;SDS011;6832;51.186;3.236;2023-07-02T04:42:08;45.93;;;12.67;;
13520;SDS011;6832;51.186;3.236;2023-07-02T04:44:40;37.67;;;11.27;;
13520;SDS011;6832;51.186;3.236;2023-07-02T04:47:09;34.15;;;11.90;;
13520;SDS011;6832;51.186;3.236;2023-07-02T04:49:36;32.93;;;10.97;;
13520;SDS011;6832;51.186;3.236;2023-07-02T04:52:03;34.13;;;11.07;;
13520;SDS011;6832;51.186;3.236;2023-07-02T04:54:30;24.50;;;10.47;;
13520;SDS011;6832;51.186;3.236;2023-07-02T04:56:57;41.47;;;11.90;;
13520;SDS011;6832;51.186;3.236;2023-07-02T04:59:25;59.27;;;13.03;;
13520;SDS011;6832;51.186;3.236;2023-07-02T05:01:52;32.37;;;11.03;;
13520;SDS011;6832;51.186;3.236;2023-07-02T05:04:20;41.27;;;11.47;;
13520;SDS011;6832;51.186;3.236;2023-07-02T05:06:47;40.07;;;11.87;;
13520;SDS011;6832;51.186;3.236;2023-07-02T05:09:14;46.13;;;11.57;;
13520;SDS011;6832;51.186;3.236;2023-07-02T05:11:40;34.47;;;10.97;;
13520;SDS011;6832;51.186;3.236;2023-07-02T05:14:07;41.60;;;10.70;;
13520;SDS011;6832;51.186;3.236;2023-07-02T05:16:34;28.77;;;10.10;;
13520;SDS011;6832;51.186;3.236;2023-07-02T05:19:01;34.00;;;11.20;;
13520;SDS011;6832;51.186;3.236;2023-07-02T05:21:29;38.60;;;11.17;;
13520;SDS011;6832;51.186;3.236;2023-07-02T05:23:56;31.10;;;10.63;;
13520;SDS011;6832;51.186;3.236;2023-07-02T05:26:23;61.37;;;12.20;;
13520;SDS011;6832;51.186;3.236;2023-07-02T05:28:51;32.70;;;9.73;;
13520;SDS011;6832;51.186;3.236;2023-07-02T05:31:18;58.20;;;12.57;;
13520;SDS011;6832;51.186;3.236;2023-07-02T05:33:45;61.60;;;12.40;;
13520;SDS011;6832;51.186;3.236;2023-07-02T05:36:12;37.00;;;10.33;;
13520;SDS011;6832;51.186;3.236;2023-07-02T05:38:40;38.00;;;9.93;;
13520;SDS011;6832;51.186;3.236;2023-07-02T05:41:07;34.07;;;10.20;;
13520;SDS011;6832;51.186;3.236;2023-07-02T05:43:33;40.07;;;10.30;;
13520;SDS011;6832;51.186;3.236;2023-07-02T05:46:00;35.60;;;10.80;;
13520;SDS011;6832;51.186;3.236;2023-07-02T05:48:27;43.50;;;10.67;;
13520;SDS011;6832;51.186;3.236;2023-07-02T05:50:54;29.73;;;10.07;;
13520;SDS011;6832;51.186;3.236;2023-07-02T05:53:21;38.93;;;10.47;;
13520;SDS011;6832;51.186;3.236;2023-07-02T05:55:49;28.90;;;9.23;;
13520;SDS011;6832;51.186;3.236;2023-07-02T05:58:16;45.03;;;10.37;;
13520;SDS011;6832;51.186;3.236;2023-07-02T06:00:43;30.47;;;9.90;;
13520;SDS011;6832;51.186;3.236;2023-07-02T06:03:14;69.53;;;13.23;;
13520;SDS011;6832;51.186;3.236;2023-07-02T06:05:45;37.17;;;10.03;;
13520;SDS011;6832;51.186;3.236;2023-07-02T06:08:13;43.87;;;10.20;;
13520;SDS011;6832;51.186;3.236;2023-07-02T06:10:40;34.10;;;9.73;;
13520;SDS011;6832;51.186;3.236;2023-07-02T06:13:08;26.17;;;8.93;;
13520;SDS011;6832;51.186;3.236;2023-07-02T06:15:35;55.07;;;11.87;;
13520;SDS011;6832;51.186;3.236;2023-07-02T06:18:02;34.17;;;9.30;;
13520;SDS011;6832;51.186;3.236;2023-07-02T06:20:29;40.00;;;10.03;;
13520;SDS011;6832;51.186;3.236;2023-07-02T06:22:56;32.57;;;9.10;;
13520;SDS011;6832;51.186;3.236;2023-07-02T06:25:23;35.97;;;9.37;;
13520;SDS011;6832;51.186;3.236;2023-07-02T06:27:50;62.40;;;11.37;;
13520;SDS011;6832;51.186;3.236;2023-07-02T06:30:18;35.13;;;9.03;;
13520;SDS011;6832;51.186;3.236;2023-07-02T06:32:45;29.97;;;8.93;;
13520;SDS011;6832;51.186;3.236;2023-07-02T06:35:12;30.17;;;8.40;;
13520;SDS011;6832;51.186;3.236;2023-07-02T06:37:39;43.50;;;9.80;;
13520;SDS011;6832;51.186;3.236;2023-07-02T06:40:06;28.43;;;8.53;;
13520;SDS011;6832;51.186;3.236;2023-07-02T06:42:34;32.63;;;8.87;;
13520;SDS011;6832;51.186;3.236;2023-07-02T06:45:01;39.50;;;9.70;;
13520;SDS011;6832;51.186;3.236;2023-07-02T06:47:30;33.83;;;8.90;;
13520;SDS011;6832;51.186;3.236;2023-07-02T06:49:57;45.03;;;10.03;;
13520;SDS011;6832;51.186;3.236;2023-07-02T06:52:24;48.73;;;10.27;;
13520;SDS011;6832;51.186;3.236;2023-07-02T06:54:51;37.50;;;9.57;;
13520;SDS011;6832;51.186;3.236;2023-07-02T06:57:18;31.63;;;8.83;;
13520;SDS011;6832;51.186;3.236;2023-07-02T06:59:46;57.93;;;11.20;;
13520;SDS011;6832;51.186;3.236;2023-07-02T07:02:13;42.80;;;9.87;;
13520;SDS011;6832;51.186;3.236;2023-07-02T07:04:41;40.70;;;10.10;;
13520;SDS011;6832;51.186;3.236;2023-07-02T07:07:08;40.93;;;9.67;;
13520;SDS011;6832;51.186;3.236;2023-07-02T07:09:35;37.97;;;9.07;;
13520;SDS011;6832;51.186;3.236;2023-07-02T07:12:02;47.47;;;10.20;;
13520;SDS011;6832;51.186;3.236;2023-07-02T07:14:29;35.60;;;9.03;;
13520;SDS011;6832;51.186;3.236;2023-07-02T07:16:56;27.57;;;8.63;;
13520;SDS011;6832;51.186;3.236;2023-07-02T07:19:23;34.13;;;9.33;;
13520;SDS011;6832;51.186;3.236;2023-07-02T07:21:51;46.57;;;10.37;;
13520;SDS011;6832;51.186;3.236;2023-07-02T07:24:18;47.50;;;9.87;;
13520;SDS011;6832;51.186;3.236;2023-07-02T07:26:44;35.10;;;9.93;;
13520;SDS011;6832;51.186;3.236;2023-07-02T07:29:12;36.63;;;10.07;;
13520;SDS011;6832;51.186;3.236;2023-07-02T07:31:39;36.53;;;9.87;;
13520;SDS011;6832;51.186;3.236;2023-07-02T07:34:06;28.47;;;8.63;;
13520;SDS011;6832;51.186;3.236;2023-07-02T07:36:33;37.00;;;9.23;;
13520;SDS011;6832;51.186;3.236;2023-07-02T07:39:01;58.27;;;10.90;;
13520;SDS011;6832;51.186;3.236;2023-07-02T07:41:28;41.03;;;9.20;;
13520;SDS011;6832;51.186;3.236;2023-07-02T07:43:55;34.83;;;8.80;;
13520;SDS011;6832;51.186;3.236;2023-07-02T07:46:22;36.13;;;8.70;;
13520;SDS011;6832;51.186;3.236;2023-07-02T07:48:49;40.03;;;9.93;;
13520;SDS011;6832;51.186;3.236;2023-07-02T07:51:15;23.70;;;8.93;;
13520;SDS011;6832;51.186;3.236;2023-07-02T07:53:42;41.87;;;9.33;;
13520;SDS011;6832;51.186;3.236;2023-07-02T07:56:11;34.37;;;9.13;;
13520;SDS011;6832;51.186;3.236;2023-07-02T07:58:37;29.70;;;8.90;;
13520;SDS011;6832;51.186;3.236;2023-07-02T08:01:04;33.63;;;9.00;;
13520;SDS011;6832;51.186;3.236;2023-07-02T08:03:31;35.73;;;9.60;;
13520;SDS011;6832;51.186;3.236;2023-07-02T08:05:58;53.50;;;10.47;;
13520;SDS011;6832;51.186;3.236;2023-07-02T08:08:25;32.83;;;8.60;;
13520;SDS011;6832;51.186;3.236;2023-07-02T08:10:51;33.90;;;9.03;;
13520;SDS011;6832;51.186;3.236;2023-07-02T08:13:20;40.57;;;10.00;;
13520;SDS011;6832;51.186;3.236;2023-07-02T08:15:47;26.73;;;8.40;;
13520;SDS011;6832;51.186;3.236;2023-07-02T08:18:14;29.97;;;8.77;;
13520;SDS011;6832;51.186;3.236;2023-07-02T08:20:40;43.63;;;10.40;;
13520;SDS011;6832;51.186;3.236;2023-07-02T08:23:07;32.37;;;9.40;;
13520;SDS011;6832;51.186;3.236;2023-07-02T08:25:34;37.03;;;9.67;;
13520;SDS011;6832;51.186;3.236;2023-07-02T08:28:01;45.70;;;10.23;;
13520;SDS011;6832;51.186;3.236;2023-07-02T08:30:29;33.30;;;8.90;;
13520;SDS011;6832;51.186;3.236;2023-07-02T08:32:56;33.27;;;9.63;;
13520;SDS011;6832;51.186;3.236;2023-07-02T08:35:23;53.00;;;10.03;;
13520;SDS011;6832;51.186;3.236;2023-07-02T08:37:50;39.83;;;9.00;;
13520;SDS011;6832;51.186;3.236;2023-07-02T08:40:17;32.23;;;8.80;;
13520;SDS011;6832;51.186;3.236;2023-07-02T08:42:44;32.97;;;8.60;;
13520;SDS011;6832;51.186;3.236;2023-07-02T08:45:13;44.40;;;9.53;;
13520;SDS011;6832;51.186;3.236;2023-07-02T08:47:44;38.67;;;9.27;;
13520;SDS011;6832;51.186;3.236;2023-07-02T08:50:11;60.47;;;10.70;;
13520;SDS011;6832;51.186;3.236;2023-07-02T08:52:38;51.63;;;10.23;;
13520;SDS011;6832;51.186;3.236;2023-07-02T08:55:05;43.90;;;8.93;;
13520;SDS011;6832;51.186;3.236;2023-07-02T08:57:34;27.50;;;8.27;;
13520;SDS011;6832;51.186;3.236;2023-07-02T09:00:03;45.03;;;9.77;;
13520;SDS011;6832;51.186;3.236;2023-07-02T09:02:32;53.90;;;10.80;;
13520;SDS011;6832;51.186;3.236;2023-07-02T09:05:01;28.23;;;8.57;;
13520;SDS011;6832;51.186;3.236;2023-07-02T09:07:29;33.70;;;8.33;;
13520;SDS011;6832;51.186;3.236;2023-07-02T09:09:56;34.97;;;8.37;;
13520;SDS011;6832;51.186;3.236;2023-07-02T09:12:24;36.00;;;7.97;;
13520;SDS011;6832;51.186;3.236;2023-07-02T09:14:54;34.90;;;8.73;;
13520;SDS011;6832;51.186;3.236;2023-07-02T09:17:26;39.47;;;8.67;;
13520;SDS011;6832;51.186;3.236;2023-07-02T09:19:54;38.00;;;8.50;;
13520;SDS011;6832;51.186;3.236;2023-07-02T09:22:22;33.33;;;8.67;;
13520;SDS011;6832;51.186;3.236;2023-07-02T09:24:52;44.30;;;9.37;;
13520;SDS011;6832;51.186;3.236;2023-07-02T09:27:20;53.83;;;9.90;;
13520;SDS011;6832;51.186;3.236;2023-07-02T09:29:50;45.47;;;8.97;;
13520;SDS011;6832;51.186;3.236;2023-07-02T09:32:27;43.60;;;9.33;;
13520;SDS011;6832;51.186;3.236;2023-07-02T09:34:54;43.80;;;9.07;;
13520;SDS011;6832;51.186;3.236;2023-07-02T09:37:23;34.10;;;8.20;;
13520;SDS011;6832;51.186;3.236;2023-07-02T09:39:50;34.67;;;8.40;;
13520;SDS011;6832;51.186;3.236;2023-07-02T09:42:19;29.57;;;7.83;;
13520;SDS011;6832;51.186;3.236;2023-07-02T09:44:47;35.13;;;8.23;;
13520;SDS011;6832;51.186;3.236;2023-07-02T09:47:15;35.53;;;8.60;;
13520;SDS011;6832;51.186;3.236;2023-07-02T09:49:47;36.03;;;8.40;;
13520;SDS011;6832;51.186;3.236;2023-07-02T09:52:16;30.70;;;7.93;;
13520;SDS011;6832;51.186;3.236;2023-07-02T09:54:45;30.37;;;7.97;;
13520;SDS011;6832;51.186;3.236;2023-07-02T09:57:12;35.20;;;8.63;;
13520;SDS011;6832;51.186;3.236;2023-07-02T09:59:41;38.50;;;8.20;;
13520;SDS011;6832;51.186;3.236;2023-07-02T10:02:09;30.77;;;7.97;;
13520;SDS011;6832;51.186;3.236;2023-07-02T10:04:40;42.53;;;9.10;;
13520;SDS011;6832;51.186;3.236;2023-07-02T10:07:07;55.10;;;12.27;;
13520;SDS011;6832;51.186;3.236;2023-07-02T10:09:35;66.37;;;13.43;;
13520;SDS011;6832;51.186;3.236;2023-07-02T10:12:15;34.80;;;9.63;;
13520;SDS011;6832;51.186;3.236;2023-07-02T10:14:47;44.10;;;11.03;;
13520;SDS011;6832;51.186;3.236;2023-07-02T10:17:25;38.77;;;10.20;;
13520;SDS011;6832;51.186;3.236;2023-07-02T10:19:53;42.53;;;9.63;;
13520;SDS011;6832;51.186;3.236;2023-07-02T10:22:23;44.07;;;10.93;;
13520;SDS011;6832;51.186;3.236;2023-07-02T10:24:51;32.33;;;9.37;;
13520;SDS011;6832;51.186;3.236;2023-07-02T10:27:20;29.83;;;8.80;;
13520;SDS011;6832;51.186;3.236;2023-07-02T10:29:59;28.83;;;8.23;;
13520;SDS011;6832;51.186;3.236;2023-07-02T10:32:26;34.83;;;9.27;;
13520;SDS011;6832;51.186;3.236;2023-07-02T10:34:54;35.07;;;9.17;;
13520;SDS011;6832;51.186;3.236;2023-07-02T10:37:21;49.23;;;9.87;;
13520;SDS011;6832;51.186;3.236;2023-07-02T10:39:48;48.03;;;9.50;;
13520;SDS011;6832;51.186;3.236;2023-07-02T10:42:17;38.43;;;8.33;;
13520;SDS011;6832;51.186;3.236;2023-07-02T10:44:49;31.77;;;7.90;;
13520;SDS011;6832;51.186;3.236;2023-07-02T10:47:16;53.57;;;9.10;;
13520;SDS011;6832;51.186;3.236;2023-07-02T10:49:44;33.57;;;7.60;;
13520;SDS011;6832;51.186;3.236;2023-07-02T10:52:11;57.63;;;9.90;;
13520;SDS011;6832;51.186;3.236;2023-07-02T10:54:38;39.00;;;8.57;;
13520;SDS011;6832;51.186;3.236;2023-07-02T10:57:09;32.90;;;7.37;;
13520;SDS011;6832;51.186;3.236;2023-07-02T10:59:36;35.30;;;7.53;;
13520;SDS011;6832;51.186;3.236;2023-07-02T11:02:05;32.43;;;7.87;;
13520;SDS011;6832;51.186;3.236;2023-07-02T11:04:35;67.57;;;10.97;;
13520;SDS011;6832;51.186;3.236;2023-07-02T11:07:03;34.73;;;7.83;;
13520;SDS011;6832;51.186;3.236;2023-07-02T11:09:30;27.97;;;6.80;;
13520;SDS011;6832;51.186;3.236;2023-07-02T11:11:57;32.93;;;7.83;;
13520;SDS011;6832;51.186;3.236;2023-07-02T11:14:29;47.53;;;8.70;;
13520;SDS011;6832;51.186;3.236;2023-07-02T11:16:56;41.77;;;7.90;;
13520;SDS011;6832;51.186;3.236;2023-07-02T11:19:25;49.10;;;9.03;;
13520;SDS011;6832;51.186;3.236;2023-07-02T11:21:53;35.80;;;7.43;;
13520;SDS011;6832;51.186;3.236;2023-07-02T11:24:26;27.33;;;6.70;;
13520;SDS011;6832;51.186;3.236;2023-07-02T11:26:55;41.97;;;8.17;;
13520;SDS011;6832;51.186;3.236;2023-07-02T11:29:22;28.70;;;6.70;;
13520;SDS011;6832;51.186;3.236;2023-07-02T11:31:49;30.03;;;7.17;;
13520;SDS011;6832;51.186;3.236;2023-07-02T11:34:16;44.77;;;8.63;;
13520;SDS011;6832;51.186;3.236;2023-07-02T11:36:45;32.20;;;7.63;;
13520;SDS011;6832;51.186;3.236;2023-07-02T11:39:12;31.90;;;7.87;;
13520;SDS011;6832;51.186;3.236;2023-07-02T11:41:41;31.37;;;7.40;;
13520;SDS011;6832;51.186;3.236;2023-07-02T11:44:10;29.20;;;7.00;;
13520;SDS011;6832;51.186;3.236;2023-07-02T11:46:36;62.65;;;10.38;;
13520;SDS011;6832;51.186;3.236;2023-07-02T11:49:03;29.73;;;6.90;;
13520;SDS011;6832;51.186;3.236;2023-07-02T11:51:32;31.17;;;7.45;;
13520;SDS011;6832;51.186;3.236;2023-07-02T11:54:01;35.17;;;7.55;;
13520;SDS011;6832;51.186;3.236;2023-07-02T11:56:28;25.77;;;6.72;;
13520;SDS011;6832;51.186;3.236;2023-07-02T11:58:55;26.95;;;7.15;;
13520;SDS011;6832;51.186;3.236;2023-07-02T12:01:22;34.15;;;7.55;;
13520;SDS011;6832;51.186;3.236;2023-07-02T12:03:49;30.70;;;7.78;;
13520;SDS011;6832;51.186;3.236;2023-07-02T12:06:15;43.45;;;8.50;;
13520;SDS011;6832;51.186;3.236;2023-07-02T12:08:42;36.55;;;8.15;;
13520;SDS011;6832;51.186;3.236;2023-07-02T12:11:11;40.42;;;8.45;;
13520;SDS011;6832;51.186;3.236;2023-07-02T12:13:38;29.75;;;7.05;;
13520;SDS011;6832;51.186;3.236;2023-07-02T12:16:04;31.17;;;7.35;;
13520;SDS011;6832;51.186;3.236;2023-07-02T12:18:31;31.30;;;7.38;;
13520;SDS011;6832;51.186;3.236;2023-07-02T12:20:58;19.67;;;6.25;;
13520;SDS011;6832;51.186;3.236;2023-07-02T12:23:25;28.42;;;7.60;;
13520;SDS011;6832;51.186;3.236;2023-07-02T12:25:52;26.83;;;6.82;;
13520;SDS011;6832;51.186;3.236;2023-07-02T12:28:20;29.15;;;7.78;;
13520;SDS011;6832;51.186;3.236;2023-07-02T12:30:47;26.90;;;7.35;;
13520;SDS011;6832;51.186;3.236;2023-07-02T12:33:14;26.77;;;6.68;;
13520;SDS011;6832;51.186;3.236;2023-07-02T12:35:40;57.42;;;9.93;;
13520;SDS011;6832;51.186;3.236;2023-07-02T12:38:07;28.80;;;7.57;;
13520;SDS011;6832;51.186;3.236;2023-07-02T12:40:34;30.55;;;8.23;;
13520;SDS011;6832;51.186;3.236;2023-07-02T12:43:01;35.38;;;8.40;;
13520;SDS011;6832;51.186;3.236;2023-07-02T12:45:29;35.67;;;9.13;;
13520;SDS011;6832;51.186;3.236;2023-07-02T12:47:56;32.20;;;7.32;;
13520;SDS011;6832;51.186;3.236;2023-07-02T12:50:23;46.25;;;9.18;;
13520;SDS011;6832;51.186;3.236;2023-07-02T12:52:50;34.97;;;8.05;;
13520;SDS011;6832;51.186;3.236;2023-07-02T12:55:17;29.85;;;7.40;;
13520;SDS011;6832;51.186;3.236;2023-07-02T12:57:44;27.75;;;7.50;;
13520;SDS011;6832;51.186;3.236;2023-07-02T13:00:11;34.03;;;8.23;;
13520;SDS011;6832;51.186;3.236;2023-07-02T13:02:40;65.63;;;10.98;;
13520;SDS011;6832;51.186;3.236;2023-07-02T13:05:07;21.38;;;6.95;;
13520;SDS011;6832;51.186;3.236;2023-07-02T13:07:34;47.13;;;9.48;;
13520;SDS011;6832;51.186;3.236;2023-07-02T13:10:01;51.75;;;9.60;;
13520;SDS011;6832;51.186;3.236;2023-07-02T13:12:27;52.25;;;9.45;;
13520;SDS011;6832;51.186;3.236;2023-07-02T13:14:54;28.88;;;7.30;;
13520;SDS011;6832;51.186;3.236;2023-07-02T13:17:21;36.67;;;8.20;;
13520;SDS011;6832;51.186;3.236;2023-07-02T13:19:50;27.15;;;7.45;;
13520;SDS011;6832;51.186;3.236;2023-07-02T13:22:16;47.70;;;8.80;;
13520;SDS011;6832;51.186;3.236;2023-07-02T13:24:43;34.47;;;7.53;;
13520;SDS011;6832;51.186;3.236;2023-07-02T13:27:12;43.90;;;9.18;;
13520;SDS011;6832;51.186;3.236;2023-07-02T13:29:41;33.80;;;8.23;;
13520;SDS011;6832;51.186;3.236;2023-07-02T13:32:08;37.80;;;7.82;;
13520;SDS011;6832;51.186;3.236;2023-07-02T13:34:36;25.58;;;6.97;;
13520;SDS011;6832;51.186;3.236;2023-07-02T13:37:04;30.15;;;7.53;;
13520;SDS011;6832;51.186;3.236;2023-07-02T13:39:31;40.72;;;8.10;;
13520;SDS011;6832;51.186;3.236;2023-07-02T13:41:58;28.25;;;7.35;;
13520;SDS011;6832;51.186;3.236;2023-07-02T13:44:26;25.75;;;6.75;;
13520;SDS011;6832;51.186;3.236;2023-07-02T13:46:53;26.40;;;7.25;;
13520;SDS011;6832;51.186;3.236;2023-07-02T13:49:20;55.40;;;9.88;;
13520;SDS011;6832;51.186;3.236;2023-07-02T13:51:47;29.40;;;7.10;;
13520;SDS011;6832;51.186;3.236;2023-07-02T13:54:17;28.23;;;7.78;;
13520;SDS011;6832;51.186;3.236;2023-07-02T13:56:45;33.03;;;7.73;;
13520;SDS011;6832;51.186;3.236;2023-07-02T13:59:13;43.22;;;8.57;;
13520;SDS011;6832;51.186;3.236;2023-07-02T14:01:41;37.77;;;8.67;;
13520;SDS011;6832;51.186;3.236;2023-07-02T14:04:08;30.05;;;7.70;;
13520;SDS011;6832;51.186;3.236;2023-07-02T14:06:36;43.03;;;8.65;;
13520;SDS011;6832;51.186;3.236;2023-07-02T14:09:03;26.03;;;6.63;;
13520;SDS011;6832;51.186;3.236;2023-07-02T14:11:31;50.87;;;9.73;;
13520;SDS011;6832;51.186;3.236;2023-07-02T14:13:59;30.90;;;7.87;;
13520;SDS011;6832;51.186;3.236;2023-07-02T14:16:27;35.07;;;8.33;;
13520;SDS011;6832;51.186;3.236;2023-07-02T14:18:54;29.07;;;7.37;;
13520;SDS011;6832;51.186;3.236;2023-07-02T14:21:20;36.23;;;7.83;;
13520;SDS011;6832;51.186;3.236;2023-07-02T14:23:47;35.90;;;8.70;;
13520;SDS011;6832;51.186;3.236;2023-07-02T14:26:14;25.97;;;7.60;;
13520;SDS011;6832;51.186;3.236;2023-07-02T14:28:41;54.20;;;9.27;;
13520;SDS011;6832;51.186;3.236;2023-07-02T14:31:08;34.37;;;8.47;;
13520;SDS011;6832;51.186;3.236;2023-07-02T14:33:37;31.73;;;7.77;;
13520;SDS011;6832;51.186;3.236;2023-07-02T14:36:05;32.73;;;7.83;;
13520;SDS011;6832;51.186;3.236;2023-07-02T14:38:33;24.43;;;7.77;;
13520;SDS011;6832;51.186;3.236;2023-07-02T14:41:00;46.87;;;9.27;;
13520;SDS011;6832;51.186;3.236;2023-07-02T14:43:28;34.93;;;8.80;;